createdAt,value
2018-08-14T00:00:05.420Z,1006.34
2018-08-14T00:01:05.377Z,1006.35
2018-08-14T00:02:05.336Z,1006.39
2018-08-14T00:03:05.294Z,1006.35
2018-08-14T00:04:05.253Z,1006.36
2018-08-14T00:05:05.209Z,1006.37
2018-08-14T00:06:05.169Z,1006.39
2018-08-14T00:07:05.126Z,1006.41
2018-08-14T00:08:05.091Z,1006.40
2018-08-14T00:09:05.043Z,1006.43
2018-08-14T00:10:05.000Z,1006.42
2018-08-14T00:11:04.961Z,1006.46
2018-08-14T00:12:04.920Z,1006.45
2018-08-14T00:13:04.878Z,1006.44
2018-08-14T00:14:04.832Z,1006.41
2018-08-14T00:15:04.793Z,1006.45
2018-08-14T00:16:04.753Z,1006.45
2018-08-14T00:17:04.707Z,1006.46
2018-08-14T00:18:04.665Z,1006.46
2018-08-14T00:19:04.625Z,1006.46
2018-08-14T00:20:04.582Z,1006.51
2018-08-14T00:21:04.541Z,1006.51
2018-08-14T00:22:04.499Z,1006.48
2018-08-14T00:23:04.466Z,1006.46
2018-08-14T00:24:04.417Z,1006.52
2018-08-14T00:25:04.372Z,1006.46
2018-08-14T00:26:04.336Z,1006.50
2018-08-14T00:27:04.292Z,1006.48
2018-08-14T00:28:04.247Z,1006.47
2018-08-14T00:29:04.204Z,1006.45
2018-08-14T00:30:04.162Z,1006.44
2018-08-14T00:31:04.122Z,1006.43
2018-08-14T00:32:04.083Z,1006.44
2018-08-14T00:33:04.035Z,1006.45
2018-08-14T00:34:03.996Z,1006.38
2018-08-14T00:35:03.955Z,1006.41
2018-08-14T00:36:03.912Z,1006.41
2018-08-14T00:37:03.873Z,1006.37
2018-08-14T00:38:03.830Z,1006.38
2018-08-14T00:39:03.788Z,1006.39
2018-08-14T00:40:03.749Z,1006.39
2018-08-14T00:41:03.704Z,1006.39
2018-08-14T00:42:03.664Z,1006.41
2018-08-14T00:43:03.621Z,1006.38
2018-08-14T00:44:03.578Z,1006.39
2018-08-14T00:45:03.536Z,1006.37
2018-08-14T00:46:03.493Z,1006.36
2018-08-14T00:47:03.454Z,1006.35
2018-08-14T00:48:03.411Z,1006.32
2018-08-14T00:49:03.367Z,1006.33
2018-08-14T00:50:03.329Z,1006.28
2018-08-14T00:51:03.286Z,1006.28
2018-08-14T00:52:03.246Z,1006.31
2018-08-14T00:53:03.200Z,1006.30
2018-08-14T00:54:03.159Z,1006.27
2018-08-14T00:55:03.119Z,1006.22
2018-08-14T00:56:03.076Z,1006.24
2018-08-14T00:57:03.035Z,1006.26
2018-08-14T00:58:02.997Z,1006.20
2018-08-14T00:59:02.958Z,1006.23
2018-08-14T01:00:02.908Z,1006.26
2018-08-14T01:01:02.867Z,1006.24
2018-08-14T01:02:02.825Z,1006.23
2018-08-14T01:03:02.783Z,1006.28
2018-08-14T01:04:02.741Z,1006.27
2018-08-14T01:05:02.699Z,1006.29
2018-08-14T01:06:02.660Z,1006.25
2018-08-14T01:07:02.618Z,1006.30
2018-08-14T01:08:02.575Z,1006.29
2018-08-14T01:09:02.534Z,1006.25
2018-08-14T01:10:02.489Z,1006.27
2018-08-14T01:11:02.453Z,1006.33
2018-08-14T01:12:02.407Z,1006.33
2018-08-14T01:13:02.370Z,1006.31
2018-08-14T01:14:02.324Z,1006.33
2018-08-14T01:15:02.280Z,1006.31
2018-08-14T01:16:02.241Z,1006.34
2018-08-14T01:17:02.198Z,1006.38
2018-08-14T01:18:02.156Z,1006.37
2018-08-14T01:19:02.117Z,1006.39
2018-08-14T01:20:02.075Z,1006.32
2018-08-14T01:21:02.031Z,1006.35
2018-08-14T01:22:01.990Z,1006.37
2018-08-14T01:23:01.945Z,1006.38
2018-08-14T01:24:01.905Z,1006.41
2018-08-14T01:25:01.864Z,1006.41
2018-08-14T01:26:01.822Z,1006.41
2018-08-14T01:27:01.781Z,1006.43
2018-08-14T01:28:01.738Z,1006.44
2018-08-14T01:29:01.696Z,1006.48
2018-08-14T01:30:01.657Z,1006.50
2018-08-14T01:31:01.619Z,1006.47
2018-08-14T01:32:01.575Z,1006.51
2018-08-14T01:33:01.534Z,1006.46
2018-08-14T01:34:01.488Z,1006.46
2018-08-14T01:35:01.446Z,1006.48
2018-08-14T01:36:01.406Z,1006.42
2018-08-14T01:37:01.363Z,1006.48
2018-08-14T01:38:01.323Z,1006.43
2018-08-14T01:39:01.287Z,1006.45
2018-08-14T01:40:01.239Z,1006.46
2018-08-14T01:41:01.196Z,1006.44
2018-08-14T01:42:01.158Z,1006.50
2018-08-14T01:43:01.117Z,1006.45
2018-08-14T01:44:01.071Z,1006.44
2018-08-14T01:45:01.028Z,1006.43
2018-08-14T01:46:00.987Z,1006.44
2018-08-14T01:47:00.948Z,1006.46
2018-08-14T01:48:00.908Z,1006.47
2018-08-14T01:49:00.862Z,1006.51
2018-08-14T01:50:00.849Z,1006.51
2018-08-14T01:51:00.780Z,1006.53
2018-08-14T01:52:00.739Z,1006.52
2018-08-14T01:53:00.694Z,1006.49
2018-08-14T01:54:00.655Z,1006.51
2018-08-14T01:55:00.614Z,1006.51
2018-08-14T01:56:00.570Z,1006.55
2018-08-14T01:57:00.532Z,1006.57
2018-08-14T01:58:00.490Z,1006.52
2018-08-14T01:59:00.447Z,1006.54
2018-08-14T02:00:00.406Z,1006.54
2018-08-14T02:01:00.367Z,1006.56
2018-08-14T02:02:00.322Z,1006.58
2018-08-14T02:03:00.281Z,1006.55
2018-08-14T02:04:00.240Z,1006.58
2018-08-14T02:05:00.196Z,1006.54
2018-08-14T02:06:00.157Z,1006.54
2018-08-14T02:07:00.117Z,1006.52
2018-08-14T02:08:00.073Z,1006.53
2018-08-14T02:09:00.031Z,1006.49
2018-08-14T02:09:59.986Z,1006.50
2018-08-14T02:10:59.947Z,1006.47
2018-08-14T02:11:59.904Z,1006.48
2018-08-14T02:12:59.861Z,1006.47
2018-08-14T02:13:59.824Z,1006.49
2018-08-14T02:14:59.779Z,1006.48
2018-08-14T02:15:59.738Z,1006.53
2018-08-14T02:16:59.696Z,1006.54
2018-08-14T02:17:59.655Z,1006.51
2018-08-14T02:18:59.614Z,1006.50
2018-08-14T02:19:59.571Z,1006.46
2018-08-14T02:20:59.529Z,1006.52
2018-08-14T02:21:59.489Z,1006.57
2018-08-14T02:22:59.446Z,1006.55
2018-08-14T02:23:59.405Z,1006.55
2018-08-14T02:24:59.365Z,1006.62
2018-08-14T02:25:59.325Z,1006.58
2018-08-14T02:26:59.280Z,1006.56
2018-08-14T02:27:59.239Z,1006.57
2018-08-14T02:28:59.195Z,1006.56
2018-08-14T02:29:59.159Z,1006.56
2018-08-14T02:30:59.113Z,1006.55
2018-08-14T02:31:59.076Z,1006.55
2018-08-14T02:32:59.031Z,1006.55
2018-08-14T02:33:58.989Z,1006.54
2018-08-14T02:34:58.949Z,1006.57
2018-08-14T02:35:58.915Z,1006.58
2018-08-14T02:36:58.867Z,1006.57
2018-08-14T02:37:58.821Z,1006.59
2018-08-14T02:38:58.785Z,1006.59
2018-08-14T02:39:58.741Z,1006.60
2018-08-14T02:40:58.704Z,1006.60
2018-08-14T02:41:58.660Z,1006.63
2018-08-14T02:42:58.616Z,1006.58
2018-08-14T02:43:58.574Z,1006.60
2018-08-14T02:44:58.536Z,1006.58
2018-08-14T02:45:58.491Z,1006.62
2018-08-14T02:46:58.449Z,1006.58
2018-08-14T02:47:58.413Z,1006.61
2018-08-14T02:48:58.375Z,1006.57
2018-08-14T02:49:58.323Z,1006.59
2018-08-14T02:50:58.283Z,1006.59
2018-08-14T02:51:58.241Z,1006.60
2018-08-14T02:52:58.205Z,1006.58
2018-08-14T02:53:58.157Z,1006.57
2018-08-14T02:54:58.117Z,1006.55
2018-08-14T02:55:58.074Z,1006.55
2018-08-14T02:56:58.033Z,1006.58
2018-08-14T02:57:57.993Z,1006.57
2018-08-14T02:58:57.952Z,1006.59
2018-08-14T02:59:57.909Z,1006.65
2018-08-14T03:00:57.866Z,1006.64
2018-08-14T03:01:57.831Z,1006.63
2018-08-14T03:02:57.795Z,1006.62
2018-08-14T03:03:57.743Z,1006.61
2018-08-14T03:04:57.702Z,1006.60
2018-08-14T03:05:57.658Z,1006.61
2018-08-14T03:06:57.619Z,1006.58
2018-08-14T03:07:57.579Z,1006.63
2018-08-14T03:08:57.536Z,1006.64
2018-08-14T03:09:57.508Z,1006.62
2018-08-14T03:10:57.451Z,1006.64
2018-08-14T03:11:57.412Z,1006.62
2018-08-14T03:12:57.374Z,1006.64
2018-08-14T03:13:57.326Z,1006.68
2018-08-14T03:14:57.285Z,1006.66
2018-08-14T03:15:57.244Z,1006.67
2018-08-14T03:16:57.202Z,1006.68
2018-08-14T03:17:57.161Z,1006.67
2018-08-14T03:18:57.120Z,1006.69
2018-08-14T03:19:57.083Z,1006.67
2018-08-14T03:20:57.037Z,1006.69
2018-08-14T03:21:56.997Z,1006.69
2018-08-14T03:22:56.956Z,1006.72
2018-08-14T03:23:56.914Z,1006.75
2018-08-14T03:24:56.870Z,1006.73
2018-08-14T03:25:56.827Z,1006.78
2018-08-14T03:26:56.786Z,1006.77
2018-08-14T03:27:56.747Z,1006.74
2018-08-14T03:28:56.703Z,1006.76
2018-08-14T03:29:56.662Z,1006.78
2018-08-14T03:30:56.621Z,1006.80
2018-08-14T03:31:56.579Z,1006.86
2018-08-14T03:32:56.552Z,1006.84
2018-08-14T03:33:56.505Z,1006.86
2018-08-14T03:34:56.455Z,1006.89
2018-08-14T03:35:56.413Z,1006.87
2018-08-14T03:36:56.371Z,1006.92
2018-08-14T03:37:56.335Z,1006.89
2018-08-14T03:38:56.287Z,1006.91
2018-08-14T03:39:56.251Z,1006.88
2018-08-14T03:40:56.203Z,1006.89
2018-08-14T03:41:56.164Z,1006.90
2018-08-14T03:42:56.122Z,1006.94
2018-08-14T03:43:56.084Z,1006.88
2018-08-14T03:44:56.040Z,1006.90
2018-08-14T03:45:55.999Z,1006.89
2018-08-14T03:46:55.954Z,1006.90
2018-08-14T03:47:55.916Z,1006.87
2018-08-14T03:48:55.873Z,1006.89
2018-08-14T03:49:55.833Z,1006.93
2018-08-14T03:50:55.790Z,1006.92
2018-08-14T03:51:55.749Z,1006.88
2018-08-14T03:52:55.708Z,1006.92
2018-08-14T03:53:55.668Z,1006.93
2018-08-14T03:54:55.625Z,1006.92
2018-08-14T03:55:55.581Z,1006.98
2018-08-14T03:56:55.544Z,1006.98
2018-08-14T03:57:55.497Z,1006.97
2018-08-14T03:58:55.456Z,1006.92
2018-08-14T03:59:55.413Z,1006.98
2018-08-14T04:00:55.373Z,1006.96
2018-08-14T04:01:55.332Z,1006.95
2018-08-14T04:02:55.291Z,1007.00
2018-08-14T04:03:55.250Z,1007.02
2018-08-14T04:04:55.208Z,1007.04
2018-08-14T04:05:55.165Z,1007.03
2018-08-14T04:06:55.127Z,1007.06
2018-08-14T04:07:55.082Z,1007.02
2018-08-14T04:08:55.042Z,1007.03
2018-08-14T04:09:54.998Z,1007.02
2018-08-14T04:10:54.956Z,1007.06
2018-08-14T04:11:54.917Z,1007.08
2018-08-14T04:12:54.875Z,1007.06
2018-08-14T04:13:54.836Z,1007.13
2018-08-14T04:14:54.794Z,1007.05
2018-08-14T04:15:54.749Z,1007.05
2018-08-14T04:16:54.709Z,1007.03
2018-08-14T04:17:54.669Z,1007.02
2018-08-14T04:18:54.627Z,1007.03
2018-08-14T04:19:54.584Z,1007.03
2018-08-14T04:20:54.542Z,1007.03
2018-08-14T04:21:54.502Z,1007.06
2018-08-14T04:22:54.458Z,1007.05
2018-08-14T04:23:54.417Z,1007.13
2018-08-14T04:24:54.375Z,1007.10
2018-08-14T04:25:54.336Z,1007.06
2018-08-14T04:26:54.297Z,1007.10
2018-08-14T04:27:54.252Z,1007.13
2018-08-14T04:28:54.212Z,1007.15
2018-08-14T04:29:54.167Z,1007.14
2018-08-14T04:30:54.130Z,1007.14
2018-08-14T04:31:54.090Z,1007.14
2018-08-14T04:32:54.044Z,1007.12
2018-08-14T04:33:54.001Z,1007.10
2018-08-14T04:34:53.961Z,1007.14
2018-08-14T04:35:53.926Z,1007.07
2018-08-14T04:36:53.879Z,1007.12
2018-08-14T04:37:53.838Z,1007.10
2018-08-14T04:38:53.796Z,1007.17
2018-08-14T04:39:53.755Z,1007.22
2018-08-14T04:40:53.714Z,1007.23
2018-08-14T04:41:53.669Z,1007.22
2018-08-14T04:42:53.632Z,1007.22
2018-08-14T04:43:53.591Z,1007.29
2018-08-14T04:44:53.546Z,1007.30
2018-08-14T04:45:53.637Z,1007.33
2018-08-14T04:46:53.471Z,1007.32
2018-08-14T04:47:53.425Z,1007.32
2018-08-14T04:48:53.383Z,1007.37
2018-08-14T04:49:53.339Z,1007.30
2018-08-14T04:50:53.297Z,1007.37
2018-08-14T04:51:53.256Z,1007.38
2018-08-14T04:52:53.218Z,1007.41
2018-08-14T04:53:53.231Z,1007.42
2018-08-14T04:54:53.131Z,1007.42
2018-08-14T04:55:53.092Z,1007.46
2018-08-14T04:56:53.046Z,1007.40
2018-08-14T04:57:53.005Z,1007.47
2018-08-14T04:58:52.965Z,1007.49
2018-08-14T04:59:52.929Z,1007.53
2018-08-14T05:00:52.881Z,1007.53
2018-08-14T05:01:52.846Z,1007.54
2018-08-14T05:02:52.801Z,1007.58
2018-08-14T05:03:52.756Z,1007.56
2018-08-14T05:04:52.714Z,1007.56
2018-08-14T05:05:52.674Z,1007.61
2018-08-14T05:06:52.630Z,1007.59
2018-08-14T05:07:52.589Z,1007.59
2018-08-14T05:08:52.582Z,1007.60
2018-08-14T05:09:52.507Z,1007.63
2018-08-14T05:10:52.465Z,1007.64
2018-08-14T05:11:52.423Z,1007.65
2018-08-14T05:12:52.395Z,1007.65
2018-08-14T05:13:52.348Z,1007.68
2018-08-14T05:14:52.305Z,1007.68
2018-08-14T05:15:52.258Z,1007.68
2018-08-14T05:16:52.218Z,1007.74
2018-08-14T05:17:52.175Z,1007.65
2018-08-14T05:18:52.134Z,1007.72
2018-08-14T05:19:52.094Z,1007.74
2018-08-14T05:20:52.048Z,1007.73
2018-08-14T05:21:52.015Z,1007.76
2018-08-14T05:22:51.965Z,1007.76
2018-08-14T05:23:51.930Z,1007.81
2018-08-14T05:24:51.889Z,1007.77
2018-08-14T05:25:51.913Z,1007.84
2018-08-14T05:26:51.804Z,1007.82
2018-08-14T05:27:51.765Z,1007.84
2018-08-14T05:28:51.724Z,1007.88
2018-08-14T05:29:51.680Z,1007.86
2018-08-14T05:30:51.637Z,1007.89
2018-08-14T05:31:51.597Z,1007.86
2018-08-14T05:32:51.555Z,1007.89
2018-08-14T05:33:51.565Z,1007.86
2018-08-14T05:34:51.468Z,1007.88
2018-08-14T05:35:51.428Z,1007.87
2018-08-14T05:36:51.385Z,1007.92
2018-08-14T05:37:51.343Z,1007.95
2018-08-14T05:38:51.303Z,1007.98
2018-08-14T05:39:51.270Z,1007.98
2018-08-14T05:40:51.221Z,1008.01
2018-08-14T05:41:51.180Z,1007.99
2018-08-14T05:42:51.139Z,1007.97
2018-08-14T05:43:51.102Z,1007.97
2018-08-14T05:44:51.056Z,1007.99
2018-08-14T05:45:51.012Z,1007.98
2018-08-14T05:46:50.969Z,1007.99
2018-08-14T05:47:50.932Z,1008.00
2018-08-14T05:48:50.887Z,1008.01
2018-08-14T05:49:50.851Z,1007.97
2018-08-14T05:50:50.810Z,1008.01
2018-08-14T05:51:50.761Z,1008.03
2018-08-14T05:52:50.727Z,1007.98
2018-08-14T05:53:50.679Z,1008.04
2018-08-14T05:54:50.639Z,1008.04
2018-08-14T05:55:50.627Z,1008.04
2018-08-14T05:56:50.564Z,1008.05
2018-08-14T05:57:50.528Z,1008.02
2018-08-14T05:58:50.500Z,1008.09
2018-08-14T05:59:50.441Z,1008.07
2018-08-14T06:00:50.391Z,1008.05
2018-08-14T06:01:50.388Z,1008.09
2018-08-14T06:02:50.310Z,1008.09
2018-08-14T06:03:50.264Z,1008.12
2018-08-14T06:04:50.222Z,1008.11
2018-08-14T06:05:50.182Z,1008.13
2018-08-14T06:06:50.144Z,1008.13
2018-08-14T06:07:50.099Z,1008.10
2018-08-14T06:08:50.057Z,1008.11
2018-08-14T06:09:50.015Z,1008.15
2018-08-14T06:10:49.976Z,1008.14
2018-08-14T06:11:49.936Z,1008.16
2018-08-14T06:12:49.893Z,1008.17
2018-08-14T06:13:49.850Z,1008.16
2018-08-14T06:14:49.808Z,1008.23
2018-08-14T06:15:49.770Z,1008.20
2018-08-14T06:16:49.763Z,1008.21
2018-08-14T06:17:49.685Z,1008.18
2018-08-14T06:18:49.643Z,1008.20
2018-08-14T06:19:49.602Z,1008.22
2018-08-14T06:20:49.561Z,1008.22
2018-08-14T06:21:49.519Z,1008.20
2018-08-14T06:22:49.477Z,1008.19
2018-08-14T06:23:49.437Z,1008.24
2018-08-14T06:24:49.394Z,1008.19
2018-08-14T06:25:49.355Z,1008.24
2018-08-14T06:26:49.311Z,1008.18
2018-08-14T06:27:49.272Z,1008.26
2018-08-14T06:28:49.232Z,1008.31
2018-08-14T06:29:49.191Z,1008.28
2018-08-14T06:30:49.147Z,1008.29
2018-08-14T06:31:49.106Z,1008.32
2018-08-14T06:32:49.071Z,1008.30
2018-08-14T06:33:49.021Z,1008.36
2018-08-14T06:34:48.981Z,1008.37
2018-08-14T06:35:48.941Z,1008.40
2018-08-14T06:36:48.900Z,1008.35
2018-08-14T06:37:48.860Z,1008.42
2018-08-14T06:38:48.819Z,1008.42
2018-08-14T06:39:48.777Z,1008.45
2018-08-14T06:40:48.734Z,1008.43
2018-08-14T06:41:48.693Z,1008.49
2018-08-14T06:42:48.652Z,1008.50
2018-08-14T06:43:48.612Z,1008.52
2018-08-14T06:44:48.572Z,1008.48
2018-08-14T06:45:48.527Z,1008.55
2018-08-14T06:46:48.489Z,1008.60
2018-08-14T06:47:48.446Z,1008.54
2018-08-14T06:48:48.437Z,1008.61
2018-08-14T06:49:48.363Z,1008.57
2018-08-14T06:50:48.322Z,1008.60
2018-08-14T06:51:48.283Z,1008.62
2018-08-14T06:52:48.251Z,1008.67
2018-08-14T06:53:48.200Z,1008.71
2018-08-14T06:54:48.157Z,1008.67
2018-08-14T06:55:48.117Z,1008.66
2018-08-14T06:56:48.075Z,1008.69
2018-08-14T06:57:48.033Z,1008.76
2018-08-14T06:58:47.997Z,1008.77
2018-08-14T06:59:47.953Z,1008.79
2018-08-14T07:00:47.912Z,1008.85
2018-08-14T07:01:47.871Z,1008.84
2018-08-14T07:02:47.838Z,1008.83
2018-08-14T07:03:47.787Z,1008.83
2018-08-14T07:04:47.750Z,1008.83
2018-08-14T07:05:47.711Z,1008.84
2018-08-14T07:06:47.664Z,1008.86
2018-08-14T07:07:47.622Z,1008.89
2018-08-14T07:08:47.582Z,1008.91
2018-08-14T07:09:47.541Z,1008.93
2018-08-14T07:10:47.503Z,1008.95
2018-08-14T07:11:47.459Z,1008.92
2018-08-14T07:12:47.416Z,1008.95
2018-08-14T07:13:47.377Z,1008.95
2018-08-14T07:14:47.336Z,1008.98
2018-08-14T07:15:47.294Z,1008.98
2018-08-14T07:16:47.252Z,1009.00
2018-08-14T07:17:47.212Z,1009.03
2018-08-14T07:18:47.171Z,1009.01
2018-08-14T07:19:47.136Z,1009.06
2018-08-14T07:20:47.091Z,1009.09
2018-08-14T07:21:47.053Z,1009.09
2018-08-14T07:22:47.012Z,1009.08
2018-08-14T07:23:46.967Z,1009.14
2018-08-14T07:24:46.927Z,1009.14
2018-08-14T07:25:46.883Z,1009.08
2018-08-14T07:26:46.850Z,1009.17
2018-08-14T07:27:46.800Z,1009.25
2018-08-14T07:28:46.760Z,1009.20
2018-08-14T07:29:46.719Z,1009.27
2018-08-14T07:30:46.679Z,1009.20
2018-08-14T07:31:46.639Z,1009.19
2018-08-14T07:32:46.597Z,1009.24
2018-08-14T07:33:46.556Z,1009.25
2018-08-14T07:34:46.512Z,1009.27
2018-08-14T07:35:46.474Z,1009.34
2018-08-14T07:36:46.431Z,1009.27
2018-08-14T07:37:46.393Z,1009.29
2018-08-14T07:38:46.353Z,1009.33
2018-08-14T07:39:46.311Z,1009.32
2018-08-14T07:40:46.267Z,1009.36
2018-08-14T07:41:46.227Z,1009.38
2018-08-14T07:42:46.187Z,1009.38
2018-08-14T07:43:46.146Z,1009.33
2018-08-14T07:44:46.105Z,1009.38
2018-08-14T07:45:46.065Z,1009.43
2018-08-14T07:46:46.025Z,1009.42
2018-08-14T07:47:45.984Z,1009.39
2018-08-14T07:48:45.940Z,1009.39
2018-08-14T07:49:45.905Z,1009.47
2018-08-14T07:50:45.858Z,1009.45
2018-08-14T07:51:45.819Z,1009.43
2018-08-14T07:52:45.785Z,1009.45
2018-08-14T07:53:45.737Z,1009.47
2018-08-14T07:54:45.697Z,1009.49
2018-08-14T07:55:45.657Z,1009.46
2018-08-14T07:56:45.620Z,1009.46
2018-08-14T07:57:45.653Z,1009.48
2018-08-14T07:58:45.534Z,1009.50
2018-08-14T07:59:45.496Z,1009.50
2018-08-14T08:00:45.449Z,1009.53
2018-08-14T08:01:45.409Z,1009.52
2018-08-14T08:02:45.368Z,1009.58
2018-08-14T08:03:45.329Z,1009.58
2018-08-14T08:04:45.289Z,1009.61
2018-08-14T08:05:45.246Z,1009.60
2018-08-14T08:06:45.209Z,1009.62
2018-08-14T08:07:45.165Z,1009.64
2018-08-14T08:08:45.123Z,1009.59
2018-08-14T08:09:45.086Z,1009.57
2018-08-14T08:10:45.046Z,1009.60
2018-08-14T08:11:45.005Z,1009.63
2018-08-14T08:12:44.964Z,1009.66
2018-08-14T08:13:44.921Z,1009.65
2018-08-14T08:14:44.880Z,1009.67
2018-08-14T08:15:44.843Z,1009.67
2018-08-14T08:16:44.797Z,1009.68
2018-08-14T08:17:44.759Z,1009.68
2018-08-14T08:18:44.716Z,1009.70
2018-08-14T08:19:44.678Z,1009.76
2018-08-14T08:20:44.636Z,1009.75
2018-08-14T08:21:44.594Z,1009.73
2018-08-14T08:22:44.556Z,1009.77
2018-08-14T08:23:44.515Z,1009.75
2018-08-14T08:24:44.472Z,1009.73
2018-08-14T08:25:44.431Z,1009.73
2018-08-14T08:26:44.392Z,1009.74
2018-08-14T08:27:44.352Z,1009.82
2018-08-14T08:28:44.311Z,1009.79
2018-08-14T08:29:44.269Z,1009.81
2018-08-14T08:30:44.228Z,1009.83
2018-08-14T08:31:44.191Z,1009.82
2018-08-14T08:32:44.148Z,1009.79
2018-08-14T08:33:44.108Z,1009.83
2018-08-14T08:34:44.070Z,1009.85
2018-08-14T08:35:44.030Z,1009.81
2018-08-14T08:36:43.988Z,1009.84
2018-08-14T08:37:43.946Z,1009.78
2018-08-14T08:38:43.912Z,1009.80
2018-08-14T08:39:43.865Z,1009.80
2018-08-14T08:40:43.823Z,1009.83
2018-08-14T08:41:43.798Z,1009.84
2018-08-14T08:42:43.745Z,1009.83
2018-08-14T08:43:43.708Z,1009.85
2018-08-14T08:44:43.662Z,1009.86
2018-08-14T08:45:43.622Z,1009.86
2018-08-14T08:46:43.583Z,1009.89
2018-08-14T08:47:43.547Z,1009.91
2018-08-14T08:48:43.507Z,1009.95
2018-08-14T08:49:43.465Z,1010.00
2018-08-14T08:50:43.425Z,1009.90
2018-08-14T08:51:43.384Z,1009.91
2018-08-14T08:52:43.342Z,1009.93
2018-08-14T08:53:43.304Z,1009.95
2018-08-14T08:54:43.269Z,1009.91
2018-08-14T08:55:43.231Z,1009.93
2018-08-14T08:56:43.180Z,1010.02
2018-08-14T08:57:43.156Z,1009.99
2018-08-14T08:58:43.101Z,1009.99
2018-08-14T08:59:43.079Z,1010.02
2018-08-14T09:00:43.020Z,1009.95
2018-08-14T09:01:42.981Z,1010.08
2018-08-14T09:02:42.958Z,1010.08
2018-08-14T09:03:42.924Z,1010.10
2018-08-14T09:04:42.860Z,1010.05
2018-08-14T09:05:42.820Z,1010.08
2018-08-14T09:06:42.779Z,1010.11
2018-08-14T09:07:42.739Z,1010.11
2018-08-14T09:08:42.700Z,1010.12
2018-08-14T09:09:42.660Z,1010.11
2018-08-14T09:10:42.617Z,1010.10
2018-08-14T09:11:42.581Z,1010.13
2018-08-14T09:12:42.537Z,1010.12
2018-08-14T09:13:42.502Z,1010.10
2018-08-14T09:14:42.457Z,1010.06
2018-08-14T09:15:42.418Z,1010.04
2018-08-14T09:16:42.378Z,1010.05
2018-08-14T09:17:42.338Z,1010.06
2018-08-14T09:18:42.300Z,1010.06
2018-08-14T09:19:42.263Z,1010.06
2018-08-14T09:20:42.218Z,1010.10
2018-08-14T09:21:42.179Z,1010.04
2018-08-14T09:22:42.138Z,1010.14
2018-08-14T09:23:42.101Z,1010.15
2018-08-14T09:24:42.058Z,1010.12
2018-08-14T09:25:42.027Z,1010.20
2018-08-14T09:26:41.982Z,1010.18
2018-08-14T09:27:41.940Z,1010.24
2018-08-14T09:28:41.901Z,1010.26
2018-08-14T09:29:41.860Z,1010.24
2018-08-14T09:30:41.822Z,1010.23
2018-08-14T09:31:41.782Z,1010.22
2018-08-14T09:32:41.743Z,1010.28
2018-08-14T09:33:41.702Z,1010.26
2018-08-14T09:34:41.664Z,1010.32
2018-08-14T09:35:41.625Z,1010.37
2018-08-14T09:36:41.584Z,1010.30
2018-08-14T09:37:41.545Z,1010.33
2018-08-14T09:38:41.519Z,1010.35
2018-08-14T09:39:41.468Z,1010.33
2018-08-14T09:40:41.424Z,1010.40
2018-08-14T09:41:41.386Z,1010.28
2018-08-14T09:42:41.374Z,1010.31
2018-08-14T09:43:41.309Z,1010.43
2018-08-14T09:44:41.267Z,1010.37
2018-08-14T09:45:41.233Z,1010.33
2018-08-14T09:46:41.189Z,1010.37
2018-08-14T09:47:41.152Z,1010.37
2018-08-14T09:48:41.111Z,1010.34
2018-08-14T09:49:41.073Z,1010.39
2018-08-14T09:50:41.031Z,1010.42
2018-08-14T09:51:40.994Z,1010.37
2018-08-14T09:52:40.952Z,1010.37
2018-08-14T09:53:40.998Z,1010.40
2018-08-14T09:54:40.878Z,1010.40
2018-08-14T09:55:40.836Z,1010.40
2018-08-14T09:56:40.798Z,1010.44
2018-08-14T09:57:40.758Z,1010.42
2018-08-14T09:58:40.719Z,1010.40
2018-08-14T09:59:40.683Z,1010.42
2018-08-14T10:00:40.643Z,1010.49
2018-08-14T10:01:40.659Z,1010.49
2018-08-14T10:02:40.563Z,1010.46
2018-08-14T10:03:40.526Z,1010.46
2018-08-14T10:04:40.535Z,1010.55
2018-08-14T10:05:40.447Z,1010.56
2018-08-14T10:06:40.416Z,1010.55
2018-08-14T10:07:40.370Z,1010.52
2018-08-14T10:08:40.331Z,1010.55
2018-08-14T10:09:40.291Z,1010.55
2018-08-14T10:10:40.254Z,1010.58
2018-08-14T10:11:40.212Z,1010.57
2018-08-14T10:12:40.177Z,1010.53
2018-08-14T10:13:40.138Z,1010.57
2018-08-14T10:14:40.146Z,1010.57
2018-08-14T10:15:40.059Z,1010.56
2018-08-14T10:16:40.021Z,1010.52
2018-08-14T10:17:39.983Z,1010.59
2018-08-14T10:18:39.952Z,1010.53
2018-08-14T10:19:39.902Z,1010.53
2018-08-14T10:20:39.870Z,1010.60
2018-08-14T10:21:39.825Z,1010.60
2018-08-14T10:22:39.791Z,1010.58
2018-08-14T10:23:39.749Z,1010.60
2018-08-14T10:24:39.714Z,1010.59
2018-08-14T10:25:39.673Z,1010.48
2018-08-14T10:26:39.694Z,1010.50
2018-08-14T10:27:39.595Z,1010.53
2018-08-14T10:28:39.621Z,1010.54
2018-08-14T10:29:39.522Z,1010.52
2018-08-14T10:30:39.484Z,1010.52
2018-08-14T10:31:39.441Z,1010.58
2018-08-14T10:32:39.405Z,1010.55
2018-08-14T10:33:39.363Z,1010.56
2018-08-14T10:34:39.325Z,1010.59
2018-08-14T10:35:39.288Z,1010.63
2018-08-14T10:36:39.250Z,1010.58
2018-08-14T10:37:39.217Z,1010.62
2018-08-14T10:38:39.174Z,1010.57
2018-08-14T10:39:39.156Z,1010.62
2018-08-14T10:40:39.096Z,1010.61
2018-08-14T10:41:39.060Z,1010.60
2018-08-14T10:42:39.023Z,1010.64
2018-08-14T10:43:38.988Z,1010.66
2018-08-14T10:44:38.949Z,1010.72
2018-08-14T10:45:38.907Z,1010.67
2018-08-14T10:46:38.875Z,1010.73
2018-08-14T10:47:38.834Z,1010.75
2018-08-14T10:48:38.794Z,1010.80
2018-08-14T10:49:38.758Z,1010.71
2018-08-14T10:50:38.718Z,1010.67
2018-08-14T10:51:38.681Z,1010.71
2018-08-14T10:52:38.643Z,1010.76
2018-08-14T10:53:38.613Z,1010.76
2018-08-14T10:54:38.571Z,1010.73
2018-08-14T10:55:38.532Z,1010.75
2018-08-14T10:56:38.493Z,1010.81
2018-08-14T10:57:38.454Z,1010.78
2018-08-14T10:58:38.449Z,1010.81
2018-08-14T10:59:38.381Z,1010.82
2018-08-14T11:00:38.342Z,1010.82
2018-08-14T11:01:38.306Z,1010.82
2018-08-14T11:02:38.265Z,1010.79
2018-08-14T11:03:38.230Z,1010.76
2018-08-14T11:04:38.280Z,1010.85
2018-08-14T11:05:38.157Z,1010.88
2018-08-14T11:06:38.115Z,1010.91
2018-08-14T11:07:38.085Z,1010.90
2018-08-14T11:08:38.043Z,1010.91
2018-08-14T11:09:38.004Z,1010.89
2018-08-14T11:10:38.012Z,1010.85
2018-08-14T11:11:37.926Z,1010.87
2018-08-14T11:12:37.889Z,1010.87
2018-08-14T11:13:37.851Z,1010.79
2018-08-14T11:14:37.815Z,1010.82
2018-08-14T11:15:37.777Z,1010.79
2018-08-14T11:16:37.737Z,1010.82
2018-08-14T11:17:37.705Z,1010.87
2018-08-14T11:18:37.664Z,1010.89
2018-08-14T11:19:37.624Z,1010.93
2018-08-14T11:20:37.585Z,1010.95
2018-08-14T11:21:37.549Z,1010.95
2018-08-14T11:22:37.511Z,1010.92
2018-08-14T11:23:37.481Z,1010.88
2018-08-14T11:24:37.439Z,1010.82
2018-08-14T11:25:37.403Z,1010.84
2018-08-14T11:26:37.363Z,1010.81
2018-08-14T11:27:37.324Z,1010.83
2018-08-14T11:28:37.283Z,1010.93
2018-08-14T11:29:37.246Z,1010.86
2018-08-14T11:30:37.210Z,1010.86
2018-08-14T11:31:37.176Z,1010.87
2018-08-14T11:32:37.235Z,1010.93
2018-08-14T11:33:37.096Z,1010.94
2018-08-14T11:34:37.059Z,1010.91
2018-08-14T11:35:37.025Z,1010.94
2018-08-14T11:36:36.985Z,1010.99
2018-08-14T11:37:36.950Z,1010.99
2018-08-14T11:38:36.912Z,1010.96
2018-08-14T11:39:36.871Z,1010.94
2018-08-14T11:40:36.832Z,1010.97
2018-08-14T11:41:36.902Z,1010.94
2018-08-14T11:42:36.759Z,1010.97
2018-08-14T11:43:36.720Z,1010.97
2018-08-14T11:44:36.686Z,1011.01
2018-08-14T11:45:36.647Z,1011.07
2018-08-14T11:46:36.607Z,1011.01
2018-08-14T11:47:36.570Z,1011.02
2018-08-14T11:48:36.534Z,1010.97
2018-08-14T11:49:36.492Z,1011.02
2018-08-14T11:50:36.456Z,1011.01
2018-08-14T11:51:36.423Z,1011.11
2018-08-14T11:52:36.382Z,1011.14
2018-08-14T11:53:36.344Z,1011.20
2018-08-14T11:54:36.309Z,1011.08
2018-08-14T11:55:36.268Z,1011.08
2018-08-14T11:56:36.238Z,1011.12
2018-08-14T11:57:36.227Z,1011.04
2018-08-14T11:58:36.155Z,1011.07
2018-08-14T11:59:36.120Z,1011.04
2018-08-14T12:00:36.088Z,1011.08
2018-08-14T12:01:36.044Z,1011.20
2018-08-14T12:02:36.019Z,1011.13
2018-08-14T12:03:35.974Z,1011.06
2018-08-14T12:04:35.947Z,1011.13